Airfield :
LOGIN :

Register | Disclaimer

   EN    FR    IT 

 










Legend :    VFR   Marginal VFR   IFR   Intensive IFR   Very Intensive IFR
Visi :
Ceiling :
>= 8 km
>= 3000ft
5 to 8 km
1000 to 3000 ft
1500m to 5 km
500 to 1000 ft
800 to 1500m
200 to 500 ft
< 800m
< 200 ft
Symbols :   Thunderstorms  Fog  Heavy snow  Heavy precipitations  Wind > 20 kt
SIGMETs :     Misc.  Thunderstorms  Icing  Turbulence  Mountain Waves  Volcanic Ashes






- Airport Elevation : 670 ft
- IATA code : MSQ


UMMS - Minsk - 2

CURRENT METAR :
  • 230930Z 27009G13MPS 9999 BKN028 05/M01 Q1001 R88/190055 NOSIG

EXPIRED METARs :
  • 230900Z 27009G13MPS 9999 BKN028 04/M01 Q1001 R31R/290050 R31L/190055 NOSIG
  • 230830Z 27008G12MPS 9999 BKN023 04/M01 Q1001 R31R/290050 R31L/190055 NOSIG
  • 230800Z 27008G12MPS 9999 BKN021 04/M00 Q1001 R88/290050 NOSIG
  • 230730Z 26008G11MPS 9999 BKN021 04/M00 Q1001 R88/290050 NOSIG
  • 230700Z 26008G12MPS 9999 BKN021 04/00 Q1001 R88/290050 NOSIG

TAF TAF UMMS
Valid from the 23 at 06:00 until the 24 at 06:00 UTC


230502Z 2306/2406 22008G13MPS 9999 BKN015
TEMPO 2306/2318 24014G19MPS 2100 -SHRA BKN004 BKN013CB
TEMPO 2318/2406 2100 -SHRA BKN004 BKN013CB



MET'MAP, your aeronautical weather chart ! - Copyright ORBIFLY December 2007 - Disclaimer

ORBIFLY MET'MAP TEAM :

Programming & Development : Alexandra Zaïnal
Concept & original design : Baudouin d'Aumeries
Assistance for programming : Marc-Olivier Méhu
Technical & hardware support : Manuel Goepfert

Contact : metmap@orbifly.com




SOURCES & CREDITS :

   NOAA